Time;durP1;ratioP1;P1;durP2;ratioP2;P2;SDS_P1;SDS_P2;PMS_P1;PMS_P2;Temp;Humidity;BMP_temperature;BMP_pressure;BME280_temperature;BME280_humidity;BME280_pressure;Samples;Min_cycle;Max_cycle;Signal;HPM_P1;HPM_P2
2022/12/19 00:01:26;;;;;;;;;;;-3.80;99.90;;;;;;5031987;28;19979;-74
2022/12/19 00:03:59;;;;;;;;;;;-3.80;99.90;;;;;;4986618;28;19987;-73
2022/12/19 00:06:31;;;;;;;;;;;-3.80;99.90;;;;;;5022781;28;19925;-72
2022/12/19 00:08:59;;;;;;;;;;;-3.90;99.90;;;;;;5028438;28;19932;-73
2022/12/19 00:11:30;;;;;;;;;;;-3.90;99.90;;;;;;5012832;28;20338;-73
2022/12/19 00:14:02;;;;;;;;;;;-3.90;99.90;;;;;;5028166;28;19952;-73
2022/12/19 00:16:34;;;;;;;;;;;-3.90;99.90;;;;;;5013736;28;19925;-74
2022/12/19 00:19:05;;;;;;;;;;;-3.90;99.90;;;;;;5027600;28;20358;-73
2022/12/19 00:21:33;;;;;;;;;;;-3.90;99.90;;;;;;5003887;28;19961;-73
2022/12/19 00:24:06;;;;;;;;;;;-3.90;99.90;;;;;;5004576;28;19933;-74
2022/12/19 00:26:38;;;;;;;;;;;-3.90;99.90;;;;;;5010009;28;19987;-73
2022/12/19 00:29:06;;;;;;;;;;;-3.90;99.90;;;;;;5003544;28;20369;-73
2022/12/19 00:31:35;;;;;;;;;;;-3.90;99.90;;;;;;5015677;28;20350;-73
2022/12/19 00:34:07;;;;;;;;;;;-4.00;99.90;;;;;;5015117;28;19925;-73
2022/12/19 00:36:39;;;;;;;;;;;-4.00;99.90;;;;;;5013548;28;19979;-74
2022/12/19 00:39:06;;;;;;;;;;;-3.90;99.90;;;;;;5031523;28;20035;-76
2022/12/19 00:41:33;;;;;;;;;;;-3.90;99.90;;;;;;4997927;28;20479;-73
2022/12/19 00:44:06;;;;;;;;;;;-3.90;99.90;;;;;;4982093;28;19930;-74
2022/12/19 00:46:38;;;;;;;;;;;-3.90;99.90;;;;;;5014725;28;19925;-74
2022/12/19 00:49:12;;;;;;;;;;;-3.90;99.90;;;;;;5019362;28;20008;-74
2022/12/19 00:51:45;;;;;;;;;;;-3.90;99.90;;;;;;5011944;28;19933;-74
2022/12/19 00:54:17;;;;;;;;;;;-3.90;99.90;;;;;;5016030;28;19925;-73
2022/12/19 00:56:49;;;;;;;;;;;-3.80;99.90;;;;;;5031430;28;19925;-73
2022/12/19 00:59:21;;;;;;;;;;;-3.90;99.90;;;;;;5013101;28;19925;-73
2022/12/19 01:01:55;;;;;;;;;;;-3.80;99.90;;;;;;5020864;28;20366;-73
2022/12/19 01:04:29;;;;;;;;;;;-3.80;99.90;;;;;;5012393;28;20033;-73
2022/12/19 01:07:00;;;;;;;;;;;-3.80;99.90;;;;;;4991331;28;19933;-73
2022/12/19 01:09:36;;;;;;;;;;;-3.80;99.90;;;;;;4995456;28;19925;-73
2022/12/19 01:15:07;;;;;;;;;;;-3.80;99.90;;;;;;5007831;28;19929;-73
2022/12/19 01:17:38;;;;;;;;;;;-3.90;99.90;;;;;;5016391;28;19926;-74
2022/12/19 01:20:11;;;;;;;;;;;-3.90;99.90;;;;;;4987182;28;19925;-73
2022/12/19 01:22:43;;;;;;;;;;;-3.90;99.90;;;;;;5000219;28;19977;-73
2022/12/19 01:25:12;;;;;;;;;;;-3.90;99.90;;;;;;4983841;28;19930;-74
2022/12/19 01:27:43;;;;;;;;;;;-3.90;99.90;;;;;;5010716;28;19983;-73
2022/12/19 01:30:15;;;;;;;;;;;-3.90;99.90;;;;;;4995524;28;19929;-73
2022/12/19 01:32:46;;;;;;;;;;;-3.90;99.90;;;;;;5010879;28;19925;-73
2022/12/19 01:35:18;;;;;;;;;;;-3.90;99.90;;;;;;5010322;28;20408;-73
2022/12/19 01:37:50;;;;;;;;;;;-4.00;99.90;;;;;;4978691;28;20450;-73
2022/12/19 01:40:22;;;;;;;;;;;-4.00;99.90;;;;;;4994726;28;19932;-74
2022/12/19 01:42:53;;;;;;;;;;;-4.10;99.90;;;;;;5005806;28;19988;-74
2022/12/19 01:45:27;;;;;;;;;;;-4.10;99.90;;;;;;5021246;28;19936;-74
2022/12/19 01:47:58;;;;;;;;;;;-4.00;99.90;;;;;;4987960;28;19932;-73
2022/12/19 01:50:35;;;;;;;;;;;-4.00;99.90;;;;;;4995170;28;20300;-73
2022/12/19 01:53:08;;;;;;;;;;;-4.00;99.90;;;;;;5029658;28;19975;-73
2022/12/19 01:55:40;;;;;;;;;;;-4.00;99.90;;;;;;4996716;28;19933;-74
2022/12/19 01:58:12;;;;;;;;;;;-3.90;99.90;;;;;;5022579;28;19925;-73
2022/12/19 02:00:44;;;;;;;;;;;-3.90;99.90;;;;;;5026863;28;19926;-74
2022/12/19 02:03:26;;;;;;;;;;;-3.90;99.90;;;;;;5004535;28;19930;-73
2022/12/19 02:05:58;;;;;;;;;;;-3.90;99.90;;;;;;5002894;28;20411;-74
2022/12/19 02:08:26;;;;;;;;;;;-3.90;99.90;;;;;;5025816;28;19929;-73
2022/12/19 02:10:58;;;;;;;;;;;-3.90;99.90;;;;;;4994312;28;19926;-73
2022/12/19 02:13:24;;;;;;;;;;;-4.00;99.90;;;;;;5001306;28;20016;-74
2022/12/19 02:16:12;;;;;;;;;;;-4.00;99.90;;;;;;5024526;28;19956;-75
2022/12/19 02:18:50;;;;;;;;;;;-4.00;99.90;;;;;;5027934;28;19925;-74
2022/12/19 02:21:31;;;;;;;;;;;-4.00;99.90;;;;;;4997837;28;19925;-73
2022/12/19 02:24:28;;;;;;;;;;;-4.00;99.90;;;;;;5013378;28;20306;-76
2022/12/19 02:27:03;;;;;;;;;;;-3.90;99.90;;;;;;5023215;28;19929;-74
2022/12/19 02:29:50;;;;;;;;;;;-3.90;99.90;;;;;;5013120;28;19987;-73
2022/12/19 02:32:32;;;;;;;;;;;-3.90;99.90;;;;;;5027531;28;19933;-74
2022/12/19 02:35:08;;;;;;;;;;;-3.80;99.90;;;;;;5022090;28;19957;-73
2022/12/19 02:37:41;;;;;;;;;;;-3.80;99.90;;;;;;4980898;28;19929;-73
2022/12/19 02:40:15;;;;;;;;;;;-3.80;99.90;;;;;;4997980;28;19926;-73
2022/12/19 02:42:50;;;;;;;;;;;-3.70;99.90;;;;;;5017267;28;20291;-75
2022/12/19 02:45:23;;;;;;;;;;;-3.70;99.90;;;;;;5001435;28;19926;-74
2022/12/19 02:47:58;;;;;;;;;;;-3.70;99.90;;;;;;5012958;28;20024;-73
2022/12/19 02:50:25;;;;;;;;;;;-3.70;99.90;;;;;;5020481;28;20420;-74
2022/12/19 02:52:57;;;;;;;;;;;-3.70;99.90;;;;;;5024245;28;19929;-73
2022/12/19 02:55:30;;;;;;;;;;;-3.70;99.90;;;;;;5012532;28;19925;-73
2022/12/19 02:58:09;;;;;;;;;;;-3.70;99.90;;;;;;5011968;28;20719;-74
2022/12/19 03:00:47;;;;;;;;;;;-3.70;99.90;;;;;;5012581;28;19926;-73
2022/12/19 03:03:26;;;;;;;;;;;-3.70;99.90;;;;;;4993940;28;20392;-73
2022/12/19 03:06:11;;;;;;;;;;;-3.60;99.90;;;;;;5013600;28;19945;-73
2022/12/19 03:08:52;;;;;;;;;;;-3.60;99.90;;;;;;5024220;28;20369;-73
2022/12/19 03:11:26;;;;;;;;;;;-3.60;99.90;;;;;;4997560;28;19925;-74
2022/12/19 03:14:01;;;;;;;;;;;-3.60;99.90;;;;;;5011658;28;19925;-73
2022/12/19 03:16:27;;;;;;;;;;;-3.60;99.90;;;;;;4996228;28;20555;-73
2022/12/19 03:18:59;;;;;;;;;;;-3.70;99.90;;;;;;5012852;28;19983;-73
2022/12/19 03:21:34;;;;;;;;;;;-3.70;99.90;;;;;;5012621;28;19929;-74
2022/12/19 03:24:08;;;;;;;;;;;-3.80;99.90;;;;;;5017910;28;19936;-74
2022/12/19 03:26:46;;;;;;;;;;;-3.90;99.90;;;;;;4994687;28;20407;-72
2022/12/19 03:29:23;;;;;;;;;;;-3.90;99.90;;;;;;5019627;28;19925;-73
2022/12/19 03:31:56;;;;;;;;;;;-3.80;99.90;;;;;;5028866;28;20592;-73
2022/12/19 03:34:30;;;;;;;;;;;-3.80;99.90;;;;;;5020229;28;19974;-75
2022/12/19 03:37:03;;;;;;;;;;;-3.80;99.90;;;;;;5022042;28;19933;-74
2022/12/19 03:39:34;;;;;;;;;;;-3.70;99.90;;;;;;5014268;28;19930;-73
2022/12/19 03:44:59;;;;;;;;;;;-3.60;99.90;;;;;;5022760;28;20416;-73
2022/12/19 03:47:35;;;;;;;;;;;-3.60;99.90;;;;;;5027087;28;19971;-73
2022/12/19 03:50:07;;;;;;;;;;;-3.60;99.90;;;;;;4985796;28;19933;-73
2022/12/19 03:52:42;;;;;;;;;;;-3.60;99.90;;;;;;5024204;28;19929;-74
2022/12/19 03:55:22;;;;;;;;;;;-3.60;99.90;;;;;;5017086;28;19930;-73
2022/12/19 03:57:52;;;;;;;;;;;-3.60;99.90;;;;;;5018766;28;19929;-73
2022/12/19 04:00:24;;;;;;;;;;;-3.60;99.90;;;;;;4998066;28;19925;-74
2022/12/19 04:02:57;;;;;;;;;;;-3.60;99.90;;;;;;5013522;28;19929;-74
2022/12/19 04:05:29;;;;;;;;;;;-3.60;99.90;;;;;;5021108;28;20650;-73
2022/12/19 04:08:03;;;;;;;;;;;-3.60;99.90;;;;;;5021110;28;19933;-73
2022/12/19 04:10:38;;;;;;;;;;;-3.60;99.90;;;;;;5027291;28;19929;-75
2022/12/19 04:13:13;;;;;;;;;;;-3.60;99.90;;;;;;5017760;28;19933;-75
2022/12/19 04:15:49;;;;;;;;;;;-3.60;99.90;;;;;;5027997;28;19956;-73
2022/12/19 04:18:21;;;;;;;;;;;-3.50;99.90;;;;;;5027053;28;19932;-73
2022/12/19 04:20:57;;;;;;;;;;;-3.50;99.90;;;;;;5032893;28;20335;-74
2022/12/19 04:23:40;;;;;;;;;;;-3.50;99.90;;;;;;5013781;28;19930;-74
2022/12/19 04:26:07;;;;;;;;;;;-3.50;99.90;;;;;;5020968;28;19925;-74
2022/12/19 04:28:38;;;;;;;;;;;-3.40;99.90;;;;;;5011793;28;19934;-74
2022/12/19 04:31:05;;;;;;;;;;;-3.40;99.90;;;;;;5022387;28;19925;-75
2022/12/19 04:33:37;;;;;;;;;;;-3.40;99.90;;;;;;4989165;28;19945;-75
2022/12/19 04:36:09;;;;;;;;;;;-3.30;99.90;;;;;;5028214;28;19987;-74
2022/12/19 04:38:40;;;;;;;;;;;-3.30;99.90;;;;;;5025518;28;20391;-74
2022/12/19 04:41:07;;;;;;;;;;;-3.30;99.90;;;;;;5012548;28;19929;-73
2022/12/19 04:43:38;;;;;;;;;;;-3.30;99.90;;;;;;5011902;28;19925;-74
2022/12/19 04:46:10;;;;;;;;;;;-3.30;99.90;;;;;;5025722;28;20300;-74
2022/12/19 04:48:37;;;;;;;;;;;-3.30;99.90;;;;;;5031853;28;20347;-74
2022/12/19 04:51:08;;;;;;;;;;;-3.30;99.90;;;;;;5020866;28;19925;-74
2022/12/19 04:53:40;;;;;;;;;;;-3.30;99.90;;;;;;4985179;28;19957;-73
2022/12/19 04:56:11;;;;;;;;;;;-3.20;99.90;;;;;;5026747;28;19925;-73
2022/12/19 04:58:43;;;;;;;;;;;-3.20;99.90;;;;;;5022498;28;19925;-75
2022/12/19 05:01:12;;;;;;;;;;;-3.20;99.90;;;;;;5017992;28;19926;-74
2022/12/19 05:03:44;;;;;;;;;;;-3.20;99.90;;;;;;5026872;28;19979;-74
2022/12/19 05:06:12;;;;;;;;;;;-3.20;99.90;;;;;;5030161;28;19929;-73
2022/12/19 05:08:44;;;;;;;;;;;-3.20;99.90;;;;;;5030757;28;20024;-74
2022/12/19 05:11:16;;;;;;;;;;;-3.20;99.90;;;;;;5012327;28;19925;-74
2022/12/19 05:13:48;;;;;;;;;;;-3.20;99.90;;;;;;5004010;28;19925;-73
2022/12/19 05:16:20;;;;;;;;;;;-3.20;99.90;;;;;;5010522;28;19925;-74
2022/12/19 05:18:52;;;;;;;;;;;-3.20;99.90;;;;;;5022651;28;19933;-74
2022/12/19 05:21:24;;;;;;;;;;;-3.20;99.90;;;;;;5014709;28;19925;-74
2022/12/19 05:23:55;;;;;;;;;;;-3.20;99.90;;;;;;5010928;28;19932;-76
2022/12/19 05:26:27;;;;;;;;;;;-3.10;99.90;;;;;;5016182;28;19925;-75
2022/12/19 05:28:54;;;;;;;;;;;-2.90;99.90;;;;;;4995543;28;20165;-76
2022/12/19 05:31:20;;;;;;;;;;;-2.80;99.90;;;;;;5013615;28;19929;-74
2022/12/19 05:33:52;;;;;;;;;;;-2.80;99.90;;;;;;4996878;28;20327;-75
2022/12/19 05:36:24;;;;;;;;;;;-2.80;99.90;;;;;;5018234;28;19988;-74
2022/12/19 05:38:56;;;;;;;;;;;-2.80;99.90;;;;;;5017964;28;19972;-74
2022/12/19 05:41:27;;;;;;;;;;;-2.80;99.90;;;;;;5028079;28;19983;-75
2022/12/19 05:43:59;;;;;;;;;;;-2.90;99.90;;;;;;5009217;28;19925;-75
2022/12/19 05:46:30;;;;;;;;;;;-2.90;99.90;;;;;;5009595;28;19926;-75
2022/12/19 05:49:21;;;;;;;;;;;-3.00;99.90;;;;;;5012085;28;21062;-74
2022/12/19 05:51:53;;;;;;;;;;;-2.90;99.90;;;;;;5011208;28;19952;-74
2022/12/19 05:54:24;;;;;;;;;;;-2.80;99.90;;;;;;5000971;28;19932;-75
2022/12/19 05:56:56;;;;;;;;;;;-2.90;99.90;;;;;;5025483;28;19975;-74
2022/12/19 05:59:28;;;;;;;;;;;-2.90;99.90;;;;;;5009212;28;19929;-74
2022/12/19 06:01:59;;;;;;;;;;;-2.90;99.90;;;;;;4994305;28;19929;-76
2022/12/19 06:04:31;;;;;;;;;;;-3.00;99.90;;;;;;5020453;28;19929;-75
2022/12/19 06:07:03;;;;;;;;;;;-3.10;99.90;;;;;;5024406;28;19925;-74
2022/12/19 06:09:34;;;;;;;;;;;-3.10;99.90;;;;;;5030367;28;20442;-74
2022/12/19 06:12:01;;;;;;;;;;;-3.10;99.90;;;;;;5000019;28;19926;-74
2022/12/19 06:14:32;;;;;;;;;;;-3.10;99.90;;;;;;5028275;28;19929;-74
2022/12/19 06:17:04;;;;;;;;;;;-3.00;99.90;;;;;;5007231;28;20654;-74
2022/12/19 06:19:36;;;;;;;;;;;-3.00;99.90;;;;;;5002423;28;19929;-74
2022/12/19 06:22:07;;;;;;;;;;;-3.00;99.90;;;;;;5017540;28;19988;-74
2022/12/19 06:24:34;;;;;;;;;;;-3.00;99.90;;;;;;5026091;28;20315;-73
2022/12/19 06:27:05;;;;;;;;;;;-3.00;99.90;;;;;;5016190;28;19956;-73
2022/12/19 06:29:37;;;;;;;;;;;-2.90;99.90;;;;;;5019724;28;19999;-72
2022/12/19 06:32:08;;;;;;;;;;;-2.90;99.90;;;;;;5018686;28;19979;-74
2022/12/19 06:34:35;;;;;;;;;;;-2.80;99.90;;;;;;5031241;28;19932;-74
2022/12/19 06:37:07;;;;;;;;;;;-2.80;99.90;;;;;;5013113;28;19925;-73
2022/12/19 06:39:38;;;;;;;;;;;-2.80;99.90;;;;;;4997390;28;20457;-76
2022/12/19 06:42:22;;;;;;;;;;;-2.70;99.90;;;;;;5006732;28;19929;-75
2022/12/19 06:44:53;;;;;;;;;;;-2.70;99.90;;;;;;5004697;28;19925;-74
2022/12/19 06:47:24;;;;;;;;;;;-2.70;99.90;;;;;;5009939;28;19932;-73
2022/12/19 06:49:56;;;;;;;;;;;-2.70;99.90;;;;;;5010596;28;19928;-73
2022/12/19 06:52:27;;;;;;;;;;;-2.60;99.90;;;;;;5022419;28;19980;-73
2022/12/19 06:54:59;;;;;;;;;;;-2.60;99.90;;;;;;5008551;28;19926;-71
2022/12/19 06:57:31;;;;;;;;;;;-2.60;99.90;;;;;;5010669;28;19925;-73
2022/12/19 07:00:02;;;;;;;;;;;-2.60;99.90;;;;;;5017924;28;19983;-73
2022/12/19 07:02:34;;;;;;;;;;;-2.60;99.90;;;;;;4987687;28;19971;-74
2022/12/19 07:05:02;;;;;;;;;;;-2.60;99.90;;;;;;4994145;28;19995;-75
2022/12/19 07:07:29;;;;;;;;;;;-2.60;99.90;;;;;;5029445;28;19975;-71
2022/12/19 07:09:56;;;;;;;;;;;-2.60;99.90;;;;;;4989753;28;19932;-74
2022/12/19 07:12:27;;;;;;;;;;;-2.60;99.90;;;;;;5010746;28;20277;-73
2022/12/19 07:14:54;;;;;;;;;;;-2.50;99.90;;;;;;5026490;28;19979;-74
2022/12/19 07:17:27;;;;;;;;;;;-2.50;99.90;;;;;;5027155;28;19929;-75
2022/12/19 07:19:54;;;;;;;;;;;-2.50;99.90;;;;;;5016935;28;19925;-74
2022/12/19 07:22:29;;;;;;;;;;;-2.50;99.90;;;;;;5018456;28;19926;-75
2022/12/19 07:24:55;;;;;;;;;;;-2.50;99.90;;;;;;5013356;28;19987;-72
2022/12/19 07:27:27;;;;;;;;;;;-2.50;99.90;;;;;;5011200;28;19933;-74
2022/12/19 07:29:59;;;;;;;;;;;-2.60;99.90;;;;;;4988120;28;19925;-74
2022/12/19 07:32:25;;;;;;;;;;;-2.60;99.90;;;;;;5022655;28;19925;-74
2022/12/19 07:34:57;;;;;;;;;;;-2.60;99.90;;;;;;4992412;28;19929;-72
2022/12/19 07:37:28;;;;;;;;;;;-2.50;99.90;;;;;;5024294;28;19980;-73
2022/12/19 07:40:00;;;;;;;;;;;-2.50;99.90;;;;;;5011315;28;19937;-74
2022/12/19 07:42:26;;;;;;;;;;;-2.40;99.90;;;;;;4989776;28;20441;-73
2022/12/19 07:45:00;;;;;;;;;;;-2.30;99.90;;;;;;5029439;28;19996;-74
2022/12/19 07:47:32;;;;;;;;;;;-2.30;99.90;;;;;;5029339;28;19925;-73
2022/12/19 07:50:04;;;;;;;;;;;-2.20;99.90;;;;;;5024748;28;19936;-76
2022/12/19 07:52:35;;;;;;;;;;;-2.20;99.90;;;;;;5025247;28;19926;-73
2022/12/19 07:55:07;;;;;;;;;;;-2.10;99.90;;;;;;5022475;28;19929;-73
2022/12/19 07:57:34;;;;;;;;;;;-2.10;99.90;;;;;;5020558;28;19937;-73
2022/12/19 08:00:06;;;;;;;;;;;-2.00;99.90;;;;;;5022116;28;20376;-74
2022/12/19 08:02:40;;;;;;;;;;;-2.00;99.90;;;;;;5007873;28;19925;-73
2022/12/19 08:05:07;;;;;;;;;;;-1.90;99.90;;;;;;5011685;28;19984;-72
2022/12/19 08:07:34;;;;;;;;;;;-1.90;99.90;;;;;;4987583;28;19929;-72
2022/12/19 08:10:00;;;;;;;;;;;-1.80;99.90;;;;;;5021402;28;19978;-74
2022/12/19 08:12:32;;;;;;;;;;;-1.80;99.90;;;;;;5009278;28;19945;-74
2022/12/19 08:15:04;;;;;;;;;;;-1.70;99.90;;;;;;5021959;28;19933;-74
2022/12/19 08:21:31;;;;;;;;;;;-1.60;99.90;;;;;;5017265;28;20011;-72
2022/12/19 08:24:03;;;;;;;;;;;-1.60;99.90;;;;;;5006834;28;20430;-74
2022/12/19 08:26:34;;;;;;;;;;;-1.60;99.90;;;;;;5026675;28;19947;-75
2022/12/19 08:29:06;;;;;;;;;;;-1.50;99.90;;;;;;5029544;28;20336;-76
2022/12/19 08:31:38;;;;;;;;;;;-1.50;99.90;;;;;;5023000;28;19929;-72
2022/12/19 08:34:09;;;;;;;;;;;-1.50;99.90;;;;;;5007527;28;19933;-72
2022/12/19 08:36:41;;;;;;;;;;;-1.50;99.90;;;;;;5007758;28;19956;-75
2022/12/19 08:39:07;;;;;;;;;;;-1.40;99.90;;;;;;5008649;28;20378;-73
2022/12/19 08:41:39;;;;;;;;;;;-1.30;99.90;;;;;;5021485;28;19933;-73
2022/12/19 08:44:11;;;;;;;;;;;-1.30;99.90;;;;;;5024708;28;19940;-72
2022/12/19 08:46:44;;;;;;;;;;;-1.20;99.90;;;;;;4996511;28;19929;-75
2022/12/19 08:49:11;;;;;;;;;;;-1.20;99.90;;;;;;5009626;28;20592;-74
2022/12/19 08:51:42;;;;;;;;;;;-1.10;99.90;;;;;;5023587;28;19932;-74
2022/12/19 08:54:09;;;;;;;;;;;-1.10;99.90;;;;;;5005762;28;20055;-74
2022/12/19 08:56:35;;;;;;;;;;;-1.00;99.90;;;;;;5027526;28;19959;-72
2022/12/19 08:59:07;;;;;;;;;;;-1.00;99.90;;;;;;4988944;28;20287;-73
2022/12/19 09:01:39;;;;;;;;;;;-0.90;99.90;;;;;;5003035;28;19933;-76
2022/12/19 09:04:05;;;;;;;;;;;-0.90;99.90;;;;;;5009488;28;19952;-73
2022/12/19 09:06:37;;;;;;;;;;;-0.90;99.90;;;;;;5022020;28;19925;-75
2022/12/19 09:09:08;;;;;;;;;;;-0.80;99.90;;;;;;4987927;28;19944;-75
2022/12/19 09:11:40;;;;;;;;;;;-0.80;99.90;;;;;;5021517;28;20303;-73
2022/12/19 09:14:12;;;;;;;;;;;-0.80;99.90;;;;;;4984057;28;20383;-72
2022/12/19 09:16:43;;;;;;;;;;;-0.70;99.90;;;;;;5016982;28;20343;-74
2022/12/19 09:19:15;;;;;;;;;;;-0.70;99.90;;;;;;5020543;28;19929;-75
2022/12/19 09:21:42;;;;;;;;;;;-0.70;99.90;;;;;;5016532;28;19930;-75
2022/12/19 09:24:14;;;;;;;;;;;-0.70;99.90;;;;;;4990789;28;19925;-75
2022/12/19 09:26:45;;;;;;;;;;;-0.80;99.90;;;;;;4995014;28;19925;-74
2022/12/19 09:29:17;;;;;;;;;;;-0.70;99.90;;;;;;5020501;28;19930;-75
2022/12/19 09:31:49;;;;;;;;;;;-0.70;99.90;;;;;;5018759;28;19952;-74
2022/12/19 09:34:20;;;;;;;;;;;-0.70;99.90;;;;;;5028213;28;19925;-74
2022/12/19 09:36:52;;;;;;;;;;;-0.70;99.90;;;;;;5030627;28;19929;-74
2022/12/19 09:39:23;;;;;;;;;;;-0.70;99.90;;;;;;4996705;28;19936;-74
2022/12/19 09:42:09;;;;;;;;;;;-0.60;99.90;;;;;;5019031;28;19929;-74
2022/12/19 09:44:41;;;;;;;;;;;-0.40;99.90;;;;;;5026582;28;19932;-75
2022/12/19 09:47:15;;;;;;;;;;;-0.40;99.90;;;;;;5015590;28;19991;-74
2022/12/19 09:49:47;;;;;;;;;;;-0.30;99.90;;;;;;5029070;28;19929;-74
2022/12/19 09:52:27;;;;;;;;;;;-0.20;99.90;;;;;;5009224;28;19929;-74
2022/12/19 09:55:22;;;;;;;;;;;-0.10;99.90;;;;;;5009810;28;19930;-75
2022/12/19 09:58:12;;;;;;;;;;;-0.10;99.90;;;;;;5004357;28;19932;-74
2022/12/19 10:00:47;;;;;;;;;;;-0.10;99.90;;;;;;5018793;28;19926;-74
2022/12/19 10:03:28;;;;;;;;;;;-0.10;99.90;;;;;;4997273;28;19925;-74
2022/12/19 10:06:04;;;;;;;;;;;0.00;99.90;;;;;;5014448;28;19952;-74
2022/12/19 10:08:36;;;;;;;;;;;0.00;99.90;;;;;;5015148;28;19932;-74
2022/12/19 10:11:14;;;;;;;;;;;0.10;99.90;;;;;;5027676;28;19956;-75
2022/12/19 10:14:04;;;;;;;;;;;0.10;99.90;;;;;;5020786;28;19990;-74
2022/12/19 10:16:50;;;;;;;;;;;0.10;99.90;;;;;;5023268;28;20458;-74
2022/12/19 10:19:27;;;;;;;;;;;0.10;99.90;;;;;;5022316;28;19925;-75
2022/12/19 10:22:08;;;;;;;;;;;0.10;99.90;;;;;;5020771;28;20493;-74
2022/12/19 10:24:41;;;;;;;;;;;0.20;99.90;;;;;;5022394;28;19980;-74
2022/12/19 10:27:16;;;;;;;;;;;0.20;99.90;;;;;;5026815;28;20403;-74
2022/12/19 10:30:00;;;;;;;;;;;0.20;99.90;;;;;;4996353;28;19979;-75
2022/12/19 10:32:41;;;;;;;;;;;0.30;99.90;;;;;;5009176;28;19926;-77
2022/12/19 10:35:14;;;;;;;;;;;0.30;99.90;;;;;;5008181;28;19925;-75
2022/12/19 10:37:45;;;;;;;;;;;0.40;99.90;;;;;;5030259;28;20392;-74
2022/12/19 10:40:27;;;;;;;;;;;0.40;99.90;;;;;;4997468;28;19925;-74
2022/12/19 10:43:04;;;;;;;;;;;0.40;99.90;;;;;;4991246;28;19979;-74
2022/12/19 10:45:39;;;;;;;;;;;0.50;99.90;;;;;;5013512;28;19932;-75
2022/12/19 10:48:13;;;;;;;;;;;0.50;99.90;;;;;;4985418;28;20348;-74
2022/12/19 10:50:45;;;;;;;;;;;0.60;99.90;;;;;;5017385;28;19953;-74
2022/12/19 10:53:12;;;;;;;;;;;0.70;99.90;;;;;;5016048;28;19933;-74
2022/12/19 10:55:52;;;;;;;;;;;0.80;99.90;;;;;;5024350;28;20023;-74
2022/12/19 10:58:32;;;;;;;;;;;0.80;99.90;;;;;;5002885;28;19926;-76
2022/12/19 11:01:14;;;;;;;;;;;0.90;99.90;;;;;;4999004;28;19929;-73
2022/12/19 11:03:51;;;;;;;;;;;1.00;99.90;;;;;;5026021;28;20435;-75
2022/12/19 11:06:32;;;;;;;;;;;0.90;99.90;;;;;;5027169;28;19933;-73
2022/12/19 11:09:22;;;;;;;;;;;0.90;99.90;;;;;;5026706;28;19925;-75
2022/12/19 11:11:57;;;;;;;;;;;0.90;99.90;;;;;;5013775;28;19925;-73
2022/12/19 11:14:30;;;;;;;;;;;0.80;99.90;;;;;;4995971;28;19940;-74
2022/12/19 11:17:02;;;;;;;;;;;0.80;99.90;;;;;;4996453;28;19925;-73
2022/12/19 11:19:36;;;;;;;;;;;0.80;99.90;;;;;;4995768;28;19930;-74
2022/12/19 11:22:17;;;;;;;;;;;0.90;99.90;;;;;;4998441;28;19933;-73
2022/12/19 11:24:50;;;;;;;;;;;0.90;99.90;;;;;;5014564;28;19933;-73
2022/12/19 11:27:30;;;;;;;;;;;1.00;99.90;;;;;;5013640;28;19933;-73
2022/12/19 11:29:57;;;;;;;;;;;1.10;99.90;;;;;;5028481;28;19933;-73
2022/12/19 11:32:36;;;;;;;;;;;1.20;99.90;;;;;;5008078;28;19983;-73
2022/12/19 11:35:13;;;;;;;;;;;1.30;99.90;;;;;;5013609;28;20056;-74
2022/12/19 11:38:11;;;;;;;;;;;1.30;99.90;;;;;;5025827;28;19925;-74
2022/12/19 11:40:44;;;;;;;;;;;1.30;99.90;;;;;;5011123;28;20458;-75
2022/12/19 11:43:31;;;;;;;;;;;1.40;99.90;;;;;;5011016;28;20379;-75
2022/12/19 11:46:25;;;;;;;;;;;1.30;99.90;;;;;;5015490;28;19925;-75
2022/12/19 11:49:02;;;;;;;;;;;1.30;99.90;;;;;;5012057;28;20421;-75
2022/12/19 11:51:34;;;;;;;;;;;1.30;99.90;;;;;;5011225;28;19980;-73
2022/12/19 11:54:24;;;;;;;;;;;1.30;99.90;;;;;;5026371;28;19983;-74
2022/12/19 11:56:56;;;;;;;;;;;1.30;99.90;;;;;;4991246;28;19929;-73
2022/12/19 11:59:35;;;;;;;;;;;1.30;99.90;;;;;;5021462;28;19925;-74
2022/12/19 12:02:25;;;;;;;;;;;1.40;99.90;;;;;;5008241;28;19937;-73
2022/12/19 12:05:00;;;;;;;;;;;1.40;99.90;;;;;;5010702;28;19980;-73
2022/12/19 12:07:36;;;;;;;;;;;1.50;99.90;;;;;;5002876;28;19929;-74
2022/12/19 12:10:14;;;;;;;;;;;1.60;99.90;;;;;;5001073;28;19925;-73
2022/12/19 12:12:45;;;;;;;;;;;1.70;99.90;;;;;;5010950;28;20339;-74
2022/12/19 12:15:31;;;;;;;;;;;1.80;99.90;;;;;;5027940;28;19980;-74
2022/12/19 12:18:08;;;;;;;;;;;1.90;99.90;;;;;;5004397;28;20285;-73
2022/12/19 12:20:47;;;;;;;;;;;2.10;99.90;;;;;;4997654;28;19955;-74
2022/12/19 12:23:39;;;;;;;;;;;2.20;99.90;;;;;;5025980;28;19932;-73
2022/12/19 12:26:31;;;;;;;;;;;2.30;99.90;;;;;;5010517;28;19925;-73
2022/12/19 12:29:03;;;;;;;;;;;2.40;99.90;;;;;;5005052;28;19925;-73
2022/12/19 12:31:37;;;;;;;;;;;2.40;99.90;;;;;;5027725;28;19930;-73
2022/12/19 12:34:21;;;;;;;;;;;2.50;99.90;;;;;;5008347;28;19929;-73
2022/12/19 12:37:05;;;;;;;;;;;2.60;99.90;;;;;;5025288;28;19937;-74
2022/12/19 12:39:46;;;;;;;;;;;2.70;99.90;;;;;;4995219;28;20003;-74
2022/12/19 12:42:17;;;;;;;;;;;2.80;99.90;;;;;;4999351;28;19929;-73
2022/12/19 12:44:51;;;;;;;;;;;2.80;99.90;;;;;;5006653;28;20635;-73
2022/12/19 12:47:25;;;;;;;;;;;2.80;99.90;;;;;;5023010;28;19929;-74
2022/12/19 12:50:01;;;;;;;;;;;2.80;99.90;;;;;;5009367;28;19929;-73
2022/12/19 12:52:34;;;;;;;;;;;2.70;99.90;;;;;;5028915;28;19955;-73
2022/12/19 12:55:13;;;;;;;;;;;2.60;99.90;;;;;;5008550;28;19925;-73
2022/12/19 12:57:44;;;;;;;;;;;2.50;99.90;;;;;;5019324;28;19925;-73
2022/12/19 13:00:11;;;;;;;;;;;2.30;99.90;;;;;;5021706;28;20343;-73
2022/12/19 13:03:08;;;;;;;;;;;2.10;99.90;;;;;;5024604;28;19975;-73
2022/12/19 13:05:43;;;;;;;;;;;2.10;99.90;;;;;;4994033;28;20396;-73
2022/12/19 13:08:33;;;;;;;;;;;2.10;99.90;;;;;;5017640;28;19983;-73
2022/12/19 13:11:01;;;;;;;;;;;2.20;99.90;;;;;;5010867;28;19979;-73
2022/12/19 13:13:51;;;;;;;;;;;2.20;99.90;;;;;;5000399;28;19976;-73
2022/12/19 13:16:37;;;;;;;;;;;2.30;99.90;;;;;;5020693;28;19948;-73
2022/12/19 13:19:22;;;;;;;;;;;2.20;99.90;;;;;;5011940;28;19932;-73
2022/12/19 13:22:03;;;;;;;;;;;2.20;99.90;;;;;;5019316;28;19925;-73
2022/12/19 13:24:40;;;;;;;;;;;2.20;99.90;;;;;;5026414;28;19925;-74
2022/12/19 13:27:18;;;;;;;;;;;2.20;99.90;;;;;;5022281;28;19926;-73
2022/12/19 13:29:59;;;;;;;;;;;2.20;99.90;;;;;;5028955;28;19960;-72
2022/12/19 13:32:30;;;;;;;;;;;2.20;99.90;;;;;;5030144;28;19925;-74
2022/12/19 13:35:04;;;;;;;;;;;2.30;99.90;;;;;;5006060;28;19976;-73
2022/12/19 13:37:41;;;;;;;;;;;2.20;99.90;;;;;;5020889;28;19948;-75
2022/12/19 13:40:11;;;;;;;;;;;2.10;99.90;;;;;;5005873;28;19925;-73
2022/12/19 13:45:40;;;;;;;;;;;2.10;99.90;;;;;;5008663;28;19929;-73
2022/12/19 13:48:14;;;;;;;;;;;2.10;99.90;;;;;;5012753;28;19929;-75
2022/12/19 13:50:46;;;;;;;;;;;2.10;99.90;;;;;;5025509;28;20006;-73
2022/12/19 13:53:22;;;;;;;;;;;2.10;99.90;;;;;;5009751;28;19976;-74
2022/12/19 13:55:57;;;;;;;;;;;2.20;99.90;;;;;;5028211;28;19925;-73
2022/12/19 13:58:26;;;;;;;;;;;2.10;99.90;;;;;;5012271;28;19940;-74
2022/12/19 14:00:54;;;;;;;;;;;2.10;99.90;;;;;;5011286;28;19929;-74
2022/12/19 14:03:45;;;;;;;;;;;2.00;99.90;;;;;;5009844;28;20388;-73
2022/12/19 14:06:19;;;;;;;;;;;2.00;99.90;;;;;;5012171;28;19925;-73
2022/12/19 14:08:52;;;;;;;;;;;1.80;99.90;;;;;;5010954;28;19960;-73
2022/12/19 14:11:26;;;;;;;;;;;1.70;99.90;;;;;;5012050;28;19925;-73
2022/12/19 14:16:50;;;;;;;;;;;1.70;99.90;;;;;;5029492;28;19936;-74
2022/12/19 14:19:27;;;;;;;;;;;1.60;99.90;;;;;;5027787;28;19936;-74
2022/12/19 14:22:09;;;;;;;;;;;1.60;99.90;;;;;;5012301;28;19929;-74
2022/12/19 14:24:51;;;;;;;;;;;1.60;99.90;;;;;;5027883;28;20299;-74
2022/12/19 14:27:21;;;;;;;;;;;1.60;99.90;;;;;;5010940;28;20377;-74
2022/12/19 14:29:53;;;;;;;;;;;1.50;99.90;;;;;;5013060;28;19926;-73
2022/12/19 14:32:25;;;;;;;;;;;1.50;99.90;;;;;;5014963;28;20485;-73
2022/12/19 14:34:58;;;;;;;;;;;1.40;99.90;;;;;;5031513;28;20437;-73
2022/12/19 14:37:32;;;;;;;;;;;1.40;99.90;;;;;;5030104;28;20281;-73
2022/12/19 14:40:19;;;;;;;;;;;1.30;99.90;;;;;;5013129;28;19930;-74
2022/12/19 14:45:45;;;;;;;;;;;1.10;99.90;;;;;;5029676;28;19932;-73
2022/12/19 14:48:27;;;;;;;;;;;1.00;99.90;;;;;;5032853;28;19929;-74
2022/12/19 14:51:22;;;;;;;;;;;1.00;99.90;;;;;;4996684;28;19930;-74
2022/12/19 14:54:10;;;;;;;;;;;1.00;99.90;;;;;;5015640;28;19967;-74
2022/12/19 14:56:42;;;;;;;;;;;1.00;99.90;;;;;;5027967;28;19934;-74
2022/12/19 14:59:26;;;;;;;;;;;0.90;99.90;;;;;;5028776;28;20684;-74
2022/12/19 15:01:57;;;;;;;;;;;0.90;99.90;;;;;;5013808;28;20556;-74
2022/12/19 15:04:31;;;;;;;;;;;0.80;99.90;;;;;;5011920;28;19929;-73
2022/12/19 15:07:08;;;;;;;;;;;0.70;99.90;;;;;;5013569;28;19929;-75
2022/12/19 15:09:50;;;;;;;;;;;0.60;99.90;;;;;;4998019;28;19925;-74
2022/12/19 15:15:17;;;;;;;;;;;0.50;99.90;;;;;;5032863;28;20427;-73
2022/12/19 15:17:50;;;;;;;;;;;0.50;99.90;;;;;;5028070;28;19960;-73
2022/12/19 15:20:21;;;;;;;;;;;0.50;99.90;;;;;;5014015;28;20034;-74
2022/12/19 15:22:53;;;;;;;;;;;0.40;99.90;;;;;;5016018;28;20354;-73